sensor_id;sensor_type;location;lat;lon;timestamp;pressure;altitude;pressure_sealevel;temperature;humidity
61900;BME280;47853;55.890;37.664;2024-03-07T00:00:15;100163.50;;;0.83;35.39
61900;BME280;47853;55.890;37.664;2024-03-07T00:02:41;100164.94;;;0.24;36.82
61900;BME280;47853;55.890;37.664;2024-03-07T00:05:07;100163.56;;;0.17;37.59
61900;BME280;47853;55.890;37.664;2024-03-07T00:07:32;100159.91;;;-0.30;37.86
61900;BME280;47853;55.890;37.664;2024-03-07T00:09:58;100162.25;;;-0.25;38.16
61900;BME280;47853;55.890;37.664;2024-03-07T00:12:23;100150.78;;;-0.21;37.88
61900;BME280;47853;55.890;37.664;2024-03-07T00:14:49;100172.72;;;0.58;37.91
61900;BME280;47853;55.890;37.664;2024-03-07T00:17:14;100152.16;;;1.74;36.07
61900;BME280;47853;55.890;37.664;2024-03-07T00:19:39;100147.25;;;2.13;35.53
61900;BME280;47853;55.890;37.664;2024-03-07T00:22:05;100149.38;;;2.21;35.56
61900;BME280;47853;55.890;37.664;2024-03-07T00:24:30;100146.91;;;2.46;34.75
61900;BME280;47853;55.890;37.664;2024-03-07T00:26:56;100147.41;;;2.24;34.90
61900;BME280;47853;55.890;37.664;2024-03-07T00:29:21;100148.16;;;2.26;34.24
61900;BME280;47853;55.890;37.664;2024-03-07T00:31:47;100145.78;;;2.51;33.97
61900;BME280;47853;55.890;37.664;2024-03-07T00:34:15;100142.56;;;2.60;33.72
61900;BME280;47853;55.890;37.664;2024-03-07T00:36:41;100131.75;;;2.37;34.08
61900;BME280;47853;55.890;37.664;2024-03-07T00:39:06;100139.75;;;1.92;34.53
61900;BME280;47853;55.890;37.664;2024-03-07T00:41:31;100117.66;;;2.11;34.38
61900;BME280;47853;55.890;37.664;2024-03-07T00:43:57;100146.47;;;1.82;34.94
61900;BME280;47853;55.890;37.664;2024-03-07T00:46:22;100126.84;;;1.89;35.30
61900;BME280;47853;55.890;37.664;2024-03-07T00:48:48;100138.03;;;1.17;35.74
61900;BME280;47853;55.890;37.664;2024-03-07T00:51:13;100139.34;;;0.94;36.67
61900;BME280;47853;55.890;37.664;2024-03-07T00:53:38;100118.31;;;1.71;35.53
61900;BME280;47853;55.890;37.664;2024-03-07T00:56:04;100133.75;;;1.76;35.87
61900;BME280;47853;55.890;37.664;2024-03-07T00:58:29;100140.59;;;0.40;37.83
61900;BME280;47853;55.890;37.664;2024-03-07T01:00:55;100131.84;;;-0.60;39.54
61900;BME280;47853;55.890;37.664;2024-03-07T01:03:20;100111.03;;;-0.44;39.54
61900;BME280;47853;55.890;37.664;2024-03-07T01:05:46;100131.88;;;-1.14;41.13
61900;BME280;47853;55.890;37.664;2024-03-07T01:08:11;100123.31;;;-0.99;41.13
61900;BME280;47853;55.890;37.664;2024-03-07T01:10:37;100135.94;;;-1.26;41.29
61900;BME280;47853;55.890;37.664;2024-03-07T01:13:02;100127.84;;;-1.39;41.27
61900;BME280;47853;55.890;37.664;2024-03-07T01:15:28;100136.94;;;-1.48;41.32
61900;BME280;47853;55.890;37.664;2024-03-07T01:17:54;100137.22;;;-0.81;40.88
61900;BME280;47853;55.890;37.664;2024-03-07T01:20:19;100136.00;;;-0.22;39.71
61900;BME280;47853;55.890;37.664;2024-03-07T01:22:45;100139.88;;;-1.00;40.96
61900;BME280;47853;55.890;37.664;2024-03-07T01:25:10;100129.44;;;-1.37;42.08
61900;BME280;47853;55.890;37.664;2024-03-07T01:27:36;100109.09;;;-1.28;41.58
61900;BME280;47853;55.890;37.664;2024-03-07T01:30:01;100128.47;;;-0.62;40.47
61900;BME280;47853;55.890;37.664;2024-03-07T01:32:27;100120.00;;;-1.03;40.78
61900;BME280;47853;55.890;37.664;2024-03-07T01:34:52;100099.59;;;-0.25;40.19
61900;BME280;47853;55.890;37.664;2024-03-07T01:37:18;100112.50;;;0.27;39.35
61900;BME280;47853;55.890;37.664;2024-03-07T01:39:43;100111.16;;;0.52;38.63
61900;BME280;47853;55.890;37.664;2024-03-07T01:42:08;100110.16;;;-0.45;39.78
61900;BME280;47853;55.890;37.664;2024-03-07T01:44:34;100110.91;;;-0.94;40.71
61900;BME280;47853;55.890;37.664;2024-03-07T01:46:59;100088.19;;;-0.56;40.17
61900;BME280;47853;55.890;37.664;2024-03-07T01:49:25;100101.28;;;-0.07;39.31
61900;BME280;47853;55.890;37.664;2024-03-07T01:51:50;100090.84;;;-0.40;40.19
61900;BME280;47853;55.890;37.664;2024-03-07T01:54:16;100104.03;;;-0.10;39.80
61900;BME280;47853;55.890;37.664;2024-03-07T01:56:42;100107.88;;;0.49;39.43
61900;BME280;47853;55.890;37.664;2024-03-07T01:59:08;100097.09;;;-0.78;40.41
61900;BME280;47853;55.890;37.664;2024-03-07T02:01:34;100109.81;;;-1.07;41.06
61900;BME280;47853;55.890;37.664;2024-03-07T02:04:00;100092.31;;;-1.23;41.74
61900;BME280;47853;55.890;37.664;2024-03-07T02:06:25;100103.78;;;-1.44;42.19
61900;BME280;47853;55.890;37.664;2024-03-07T02:08:52;100076.28;;;-0.62;40.49
61900;BME280;47853;55.890;37.664;2024-03-07T02:11:17;100101.13;;;-1.25;41.44
61900;BME280;47853;55.890;37.664;2024-03-07T02:13:43;100100.72;;;-1.35;41.77
61900;BME280;47853;55.890;37.664;2024-03-07T02:16:08;100080.19;;;-1.41;41.62
61900;BME280;47853;55.890;37.664;2024-03-07T02:18:35;100093.00;;;-1.19;42.21
61900;BME280;47853;55.890;37.664;2024-03-07T02:21:00;100103.44;;;-0.66;41.48
61900;BME280;47853;55.890;37.664;2024-03-07T02:23:26;100088.50;;;-0.98;41.81
61900;BME280;47853;55.890;37.664;2024-03-07T02:25:51;100069.03;;;-1.63;41.99
61900;BME280;47853;55.890;37.664;2024-03-07T02:28:16;100091.06;;;-1.70;42.38
61900;BME280;47853;55.890;37.664;2024-03-07T02:30:42;100088.28;;;-1.48;42.87
61900;BME280;47853;55.890;37.664;2024-03-07T02:33:07;100073.28;;;-1.42;41.99
61900;BME280;47853;55.890;37.664;2024-03-07T02:35:33;100083.41;;;-1.73;42.41
61900;BME280;47853;55.890;37.664;2024-03-07T02:37:59;100086.25;;;-1.79;42.41
61900;BME280;47853;55.890;37.664;2024-03-07T02:40:24;100076.69;;;-2.17;42.79
61900;BME280;47853;55.890;37.664;2024-03-07T02:42:50;100077.28;;;-1.91;42.61
61900;BME280;47853;55.890;37.664;2024-03-07T02:45:15;100075.31;;;-1.86;42.07
61900;BME280;47853;55.890;37.664;2024-03-07T02:47:41;100075.03;;;-1.43;41.74
61900;BME280;47853;55.890;37.664;2024-03-07T02:50:06;100071.47;;;-1.59;41.51
61900;BME280;47853;55.890;37.664;2024-03-07T02:52:32;100072.81;;;-1.33;40.93
61900;BME280;47853;55.890;37.664;2024-03-07T02:54:57;100082.13;;;-1.83;41.76
61900;BME280;47853;55.890;37.664;2024-03-07T02:57:22;100084.97;;;-0.97;40.46
61900;BME280;47853;55.890;37.664;2024-03-07T02:59:48;100084.53;;;-1.05;41.18
61900;BME280;47853;55.890;37.664;2024-03-07T03:02:13;100077.91;;;-1.30;40.56
61900;BME280;47853;55.890;37.664;2024-03-07T03:04:39;100064.91;;;-2.05;41.74
61900;BME280;47853;55.890;37.664;2024-03-07T03:07:04;100076.41;;;-1.53;41.98
61900;BME280;47853;55.890;37.664;2024-03-07T03:09:30;100068.97;;;-2.19;42.23
61900;BME280;47853;55.890;37.664;2024-03-07T03:11:55;100068.94;;;-1.61;42.52
61900;BME280;47853;55.890;37.664;2024-03-07T03:14:20;100062.91;;;-1.81;42.35
61900;BME280;47853;55.890;37.664;2024-03-07T03:16:46;100058.66;;;-1.27;41.39
61900;BME280;47853;55.890;37.664;2024-03-07T03:19:11;100071.91;;;-1.14;40.69
61900;BME280;47853;55.890;37.664;2024-03-07T03:21:37;100060.81;;;-1.92;41.71
61900;BME280;47853;55.890;37.664;2024-03-07T03:24:02;100054.53;;;-2.26;42.66
61900;BME280;47853;55.890;37.664;2024-03-07T03:26:31;100060.59;;;-1.68;42.39
61900;BME280;47853;55.890;37.664;2024-03-07T03:28:56;100064.91;;;-1.49;41.99
61900;BME280;47853;55.890;37.664;2024-03-07T03:31:21;100066.91;;;-1.37;41.00
61900;BME280;47853;55.890;37.664;2024-03-07T03:33:47;100061.47;;;-0.62;40.39
61900;BME280;47853;55.890;37.664;2024-03-07T03:36:13;100064.16;;;-0.30;40.14
61900;BME280;47853;55.890;37.664;2024-03-07T03:38:39;100066.88;;;-0.31;39.58
61900;BME280;47853;55.890;37.664;2024-03-07T03:41:04;100052.25;;;-0.02;39.11
61900;BME280;47853;55.890;37.664;2024-03-07T03:43:29;100054.91;;;-0.35;39.37
61900;BME280;47853;55.890;37.664;2024-03-07T03:45:55;100068.97;;;-0.22;39.48
61900;BME280;47853;55.890;37.664;2024-03-07T03:48:20;100055.63;;;0.01;38.75
61900;BME280;47853;55.890;37.664;2024-03-07T03:50:46;100073.47;;;-0.08;38.71
61900;BME280;47853;55.890;37.664;2024-03-07T03:53:11;100059.03;;;-0.31;38.92
61900;BME280;47853;55.890;37.664;2024-03-07T03:55:37;100041.97;;;-1.23;40.13
61900;BME280;47853;55.890;37.664;2024-03-07T03:58:02;100054.69;;;-1.17;41.25
61900;BME280;47853;55.890;37.664;2024-03-07T04:00:28;100045.66;;;-0.59;40.70
61900;BME280;47853;55.890;37.664;2024-03-07T04:02:53;100040.63;;;-1.32;40.31
61900;BME280;47853;55.890;37.664;2024-03-07T04:05:20;100043.72;;;-1.97;40.63
61900;BME280;47853;55.890;37.664;2024-03-07T04:07:46;100037.38;;;-2.11;41.04
61900;BME280;47853;55.890;37.664;2024-03-07T04:10:12;100036.88;;;-2.00;41.68
61900;BME280;47853;55.890;37.664;2024-03-07T04:12:40;100040.47;;;-1.83;40.67
61900;BME280;47853;55.890;37.664;2024-03-07T04:15:11;100039.28;;;-2.14;40.51
61900;BME280;47853;55.890;37.664;2024-03-07T04:17:37;100040.31;;;-1.99;40.31
61900;BME280;47853;55.890;37.664;2024-03-07T04:20:19;100009.75;;;-1.94;39.61
61900;BME280;47853;55.890;37.664;2024-03-07T04:22:44;100043.03;;;-1.27;39.10
61900;BME280;47853;55.890;37.664;2024-03-07T04:25:10;100037.50;;;-1.76;39.81
61900;BME280;47853;55.890;37.664;2024-03-07T04:27:36;100022.75;;;-1.94;40.31
61900;BME280;47853;55.890;37.664;2024-03-07T04:30:02;100042.53;;;-2.28;39.86
61900;BME280;47853;55.890;37.664;2024-03-07T04:32:28;100018.25;;;-2.29;39.95
61900;BME280;47853;55.890;37.664;2024-03-07T04:34:53;100036.72;;;-2.54;40.98
61900;BME280;47853;55.890;37.664;2024-03-07T04:37:18;100025.69;;;-2.40;40.68
61900;BME280;47853;55.890;37.664;2024-03-07T04:39:44;100036.03;;;-2.00;39.67
61900;BME280;47853;55.890;37.664;2024-03-07T04:42:09;100028.94;;;-1.60;39.80
61900;BME280;47853;55.890;37.664;2024-03-07T04:44:36;100030.13;;;-1.85;39.06
61900;BME280;47853;55.890;37.664;2024-03-07T04:47:03;100013.03;;;-1.19;37.99
61900;BME280;47853;55.890;37.664;2024-03-07T04:49:30;100035.38;;;-1.67;38.86
61900;BME280;47853;55.890;37.664;2024-03-07T04:51:57;100038.38;;;-0.36;37.86
61900;BME280;47853;55.890;37.664;2024-03-07T04:54:24;100033.81;;;-0.99;37.52
61900;BME280;47853;55.890;37.664;2024-03-07T04:56:50;100031.69;;;-0.57;37.69
61900;BME280;47853;55.890;37.664;2024-03-07T04:59:17;100034.66;;;-0.99;36.92
61900;BME280;47853;55.890;37.664;2024-03-07T05:01:44;100028.22;;;-0.08;36.22
61900;BME280;47853;55.890;37.664;2024-03-07T05:04:10;100037.66;;;-0.22;36.31
61900;BME280;47853;55.890;37.664;2024-03-07T05:06:36;100019.94;;;0.48;35.67
61900;BME280;47853;55.890;37.664;2024-03-07T05:09:06;100018.72;;;0.84;34.43
61900;BME280;47853;55.890;37.664;2024-03-07T05:11:32;100025.25;;;0.30;35.56
61900;BME280;47853;55.890;37.664;2024-03-07T05:13:58;100019.97;;;-0.17;35.44
61900;BME280;47853;55.890;37.664;2024-03-07T05:16:24;100029.97;;;-0.75;36.74
61900;BME280;47853;55.890;37.664;2024-03-07T05:18:50;100032.81;;;-1.32;37.55
61900;BME280;47853;55.890;37.664;2024-03-07T05:21:16;100035.22;;;-0.59;36.67
61900;BME280;47853;55.890;37.664;2024-03-07T05:23:41;100033.00;;;-0.33;36.42
61900;BME280;47853;55.890;37.664;2024-03-07T05:26:07;100039.94;;;-1.36;37.46
61900;BME280;47853;55.890;37.664;2024-03-07T05:28:32;100009.19;;;-1.11;37.46
61900;BME280;47853;55.890;37.664;2024-03-07T05:30:58;100026.69;;;-1.49;38.15
61900;BME280;47853;55.890;37.664;2024-03-07T05:33:23;100004.91;;;-1.12;37.89
61900;BME280;47853;55.890;37.664;2024-03-07T05:35:48;100019.63;;;-1.29;37.59
61900;BME280;47853;55.890;37.664;2024-03-07T05:38:14;100014.13;;;-1.40;38.44
61900;BME280;47853;55.890;37.664;2024-03-07T05:40:39;100014.66;;;-1.16;37.98
61900;BME280;47853;55.890;37.664;2024-03-07T05:43:05;100005.53;;;-1.07;37.30
61900;BME280;47853;55.890;37.664;2024-03-07T05:45:38;100010.09;;;0.21;36.03
61900;BME280;47853;55.890;37.664;2024-03-07T05:48:14;100010.03;;;0.06;36.47
61900;BME280;47853;55.890;37.664;2024-03-07T05:50:40;100013.91;;;-0.01;37.10
61900;BME280;47853;55.890;37.664;2024-03-07T05:53:05;100004.84;;;0.83;34.68
61900;BME280;47853;55.890;37.664;2024-03-07T05:55:31;100017.72;;;-0.07;35.93
61900;BME280;47853;55.890;37.664;2024-03-07T05:57:56;100004.66;;;1.88;33.60
61900;BME280;47853;55.890;37.664;2024-03-07T06:00:22;100008.84;;;2.05;32.94
61900;BME280;47853;55.890;37.664;2024-03-07T06:02:47;100006.75;;;1.54;33.71
61900;BME280;47853;55.890;37.664;2024-03-07T06:05:12;99999.75;;;1.11;34.32
61900;BME280;47853;55.890;37.664;2024-03-07T06:07:38;100002.25;;;2.12;33.98
61900;BME280;47853;55.890;37.664;2024-03-07T06:10:04;100009.50;;;1.94;33.42
61900;BME280;47853;55.890;37.664;2024-03-07T06:12:29;100002.69;;;3.52;31.94
61900;BME280;47853;55.890;37.664;2024-03-07T06:14:54;99999.97;;;3.01;31.74
61900;BME280;47853;55.890;37.664;2024-03-07T06:17:20;99992.28;;;2.72;31.89
61900;BME280;47853;55.890;37.664;2024-03-07T06:19:45;99992.38;;;2.30;32.21
61900;BME280;47853;55.890;37.664;2024-03-07T06:22:11;99982.75;;;1.47;34.99
61900;BME280;47853;55.890;37.664;2024-03-07T06:24:36;99975.34;;;1.10;34.71
61900;BME280;47853;55.890;37.664;2024-03-07T06:27:01;99988.19;;;2.00;34.46
61900;BME280;47853;55.890;37.664;2024-03-07T06:29:27;99992.28;;;2.72;33.12
61900;BME280;47853;55.890;37.664;2024-03-07T06:31:52;99985.78;;;5.25;30.24
61900;BME280;47853;55.890;37.664;2024-03-07T06:34:18;99982.84;;;6.73;28.14
61900;BME280;47853;55.890;37.664;2024-03-07T06:36:43;99991.47;;;6.96;26.97
61900;BME280;47853;55.890;37.664;2024-03-07T06:39:09;99976.50;;;6.10;28.10
61900;BME280;47853;55.890;37.664;2024-03-07T06:41:34;99975.00;;;5.62;28.84
61900;BME280;47853;55.890;37.664;2024-03-07T06:44:00;99973.66;;;6.34;28.47
61900;BME280;47853;55.890;37.664;2024-03-07T06:46:26;99960.31;;;7.42;27.24
61900;BME280;47853;55.890;37.664;2024-03-07T06:48:51;99970.00;;;7.32;26.85
61900;BME280;47853;55.890;37.664;2024-03-07T06:51:17;99961.09;;;6.80;26.92
61900;BME280;47853;55.890;37.664;2024-03-07T06:53:43;99961.72;;;4.59;30.53
61900;BME280;47853;55.890;37.664;2024-03-07T06:56:09;99967.13;;;4.33;29.83
61900;BME280;47853;55.890;37.664;2024-03-07T06:58:34;99960.88;;;4.59;30.60
61900;BME280;47853;55.890;37.664;2024-03-07T07:01:00;99975.44;;;6.13;29.58
61900;BME280;47853;55.890;37.664;2024-03-07T07:03:25;99975.41;;;7.30;27.79
61900;BME280;47853;55.890;37.664;2024-03-07T07:05:51;99970.78;;;8.34;26.67
61900;BME280;47853;55.890;37.664;2024-03-07T07:08:16;99950.06;;;7.59;26.88
61900;BME280;47853;55.890;37.664;2024-03-07T07:10:42;99966.25;;;7.75;26.66
61900;BME280;47853;55.890;37.664;2024-03-07T07:13:08;99961.06;;;6.05;28.65
61900;BME280;47853;55.890;37.664;2024-03-07T07:15:34;99954.84;;;7.03;28.10
61900;BME280;47853;55.890;37.664;2024-03-07T07:18:00;99955.66;;;6.82;28.51
61900;BME280;47853;55.890;37.664;2024-03-07T07:20:25;99965.38;;;7.24;27.71
61900;BME280;47853;55.890;37.664;2024-03-07T07:22:50;99956.28;;;7.89;27.07
61900;BME280;47853;55.890;37.664;2024-03-07T07:25:16;99953.22;;;5.60;30.29
61900;BME280;47853;55.890;37.664;2024-03-07T07:27:47;99956.03;;;6.02;29.79
61900;BME280;47853;55.890;37.664;2024-03-07T07:30:15;99959.53;;;7.71;28.79
61900;BME280;47853;55.890;37.664;2024-03-07T07:32:41;99959.06;;;7.97;27.08
61900;BME280;47853;55.890;37.664;2024-03-07T07:35:07;99946.19;;;9.48;26.31
61900;BME280;47853;55.890;37.664;2024-03-07T07:37:32;99946.94;;;9.86;25.73
61900;BME280;47853;55.890;37.664;2024-03-07T07:39:58;99943.97;;;9.43;25.24
61900;BME280;47853;55.890;37.664;2024-03-07T07:42:23;99943.25;;;7.66;27.93
61900;BME280;47853;55.890;37.664;2024-03-07T07:44:49;99950.44;;;8.05;27.03
61900;BME280;47853;55.890;37.664;2024-03-07T07:47:14;99929.69;;;8.30;26.97
61900;BME280;47853;55.890;37.664;2024-03-07T07:49:39;99933.91;;;9.19;26.57
61900;BME280;47853;55.890;37.664;2024-03-07T07:52:05;99943.13;;;9.99;25.40
61900;BME280;47853;55.890;37.664;2024-03-07T07:54:31;99929.69;;;9.26;26.70
61900;BME280;47853;55.890;37.664;2024-03-07T07:56:57;99935.97;;;7.07;28.33
61900;BME280;47853;55.890;37.664;2024-03-07T07:59:22;99928.44;;;8.34;27.58
61900;BME280;47853;55.890;37.664;2024-03-07T08:01:47;99926.91;;;8.70;26.85
61900;BME280;47853;55.890;37.664;2024-03-07T08:04:13;99903.13;;;9.36;26.39
61900;BME280;47853;55.890;37.664;2024-03-07T08:06:38;99928.09;;;10.26;25.67
61900;BME280;47853;55.890;37.664;2024-03-07T08:09:04;99918.91;;;11.36;24.63
61900;BME280;47853;55.890;37.664;2024-03-07T08:11:29;99923.41;;;10.20;24.97
61900;BME280;47853;55.890;37.664;2024-03-07T08:13:54;99917.38;;;9.35;25.74
61900;BME280;47853;55.890;37.664;2024-03-07T08:16:20;99927.50;;;8.25;27.30
61900;BME280;47853;55.890;37.664;2024-03-07T08:18:45;99915.53;;;6.57;29.11
61900;BME280;47853;55.890;37.664;2024-03-07T08:21:11;99915.25;;;6.81;30.14
61900;BME280;47853;55.890;37.664;2024-03-07T08:23:37;99899.41;;;8.81;27.55
61900;BME280;47853;55.890;37.664;2024-03-07T08:26:02;99923.44;;;9.92;25.90
61900;BME280;47853;55.890;37.664;2024-03-07T08:28:28;99914.63;;;8.79;27.18
61900;BME280;47853;55.890;37.664;2024-03-07T08:30:53;99915.00;;;6.63;28.83
61900;BME280;47853;55.890;37.664;2024-03-07T08:33:19;99915.06;;;8.16;28.10
61900;BME280;47853;55.890;37.664;2024-03-07T08:35:44;99908.31;;;7.52;28.27
61900;BME280;47853;55.890;37.664;2024-03-07T08:38:10;99907.06;;;8.94;27.12
61900;BME280;47853;55.890;37.664;2024-03-07T08:40:35;99904.66;;;8.14;28.08
61900;BME280;47853;55.890;37.664;2024-03-07T08:43:01;99881.78;;;9.10;26.91
61900;BME280;47853;55.890;37.664;2024-03-07T08:45:28;99901.13;;;8.73;26.87
61900;BME280;47853;55.890;37.664;2024-03-07T08:47:55;99895.97;;;7.92;28.16
61900;BME280;47853;55.890;37.664;2024-03-07T08:50:21;99880.59;;;9.22;26.94
61900;BME280;47853;55.890;37.664;2024-03-07T08:52:48;99893.22;;;8.23;27.90
61900;BME280;47853;55.890;37.664;2024-03-07T08:55:22;99877.63;;;8.40;27.91
61900;BME280;47853;55.890;37.664;2024-03-07T08:57:48;99883.19;;;9.04;27.32
61900;BME280;47853;55.890;37.664;2024-03-07T09:00:14;99898.69;;;9.83;26.31
61900;BME280;47853;55.890;37.664;2024-03-07T09:02:39;99880.56;;;10.14;25.74
61900;BME280;47853;55.890;37.664;2024-03-07T09:05:05;99885.47;;;8.89;27.05
61900;BME280;47853;55.890;37.664;2024-03-07T09:07:31;99890.28;;;7.26;28.58
61900;BME280;47853;55.890;37.664;2024-03-07T09:09:57;99884.09;;;7.47;29.30
61900;BME280;47853;55.890;37.664;2024-03-07T09:12:23;99878.47;;;8.21;28.23
61900;BME280;47853;55.890;37.664;2024-03-07T09:14:48;99871.03;;;8.74;28.04
61900;BME280;47853;55.890;37.664;2024-03-07T09:17:14;99880.63;;;9.86;26.79
61900;BME280;47853;55.890;37.664;2024-03-07T09:19:39;99875.75;;;10.36;26.09
61900;BME280;47853;55.890;37.664;2024-03-07T09:22:05;99870.72;;;11.04;25.40
61900;BME280;47853;55.890;37.664;2024-03-07T09:24:31;99880.94;;;10.01;26.04
61900;BME280;47853;55.890;37.664;2024-03-07T09:26:56;99870.41;;;9.74;26.12
61900;BME280;47853;55.890;37.664;2024-03-07T09:29:22;99865.69;;;10.93;25.28
61900;BME280;47853;55.890;37.664;2024-03-07T09:31:51;99869.56;;;10.72;26.27
61900;BME280;47853;55.890;37.664;2024-03-07T09:34:18;99855.59;;;11.48;24.97
61900;BME280;47853;55.890;37.664;2024-03-07T09:36:43;99856.22;;;11.33;25.18
61900;BME280;47853;55.890;37.664;2024-03-07T09:39:09;99849.59;;;11.37;24.87
61900;BME280;47853;55.890;37.664;2024-03-07T09:41:35;99853.84;;;9.43;26.37
61900;BME280;47853;55.890;37.664;2024-03-07T09:44:01;99867.19;;;10.95;25.50
61900;BME280;47853;55.890;37.664;2024-03-07T09:46:26;99862.63;;;9.44;26.60
61900;BME280;47853;55.890;37.664;2024-03-07T09:48:52;99850.31;;;11.05;25.09
61900;BME280;47853;55.890;37.664;2024-03-07T09:51:21;99845.44;;;10.65;26.39
61900;BME280;47853;55.890;37.664;2024-03-07T09:53:49;99856.47;;;11.65;24.73
61900;BME280;47853;55.890;37.664;2024-03-07T09:56:20;99854.22;;;11.27;25.06
61900;BME280;47853;55.890;37.664;2024-03-07T09:58:49;99851.38;;;10.85;25.57
61900;BME280;47853;55.890;37.664;2024-03-07T10:01:14;99847.75;;;9.79;26.07
61900;BME280;47853;55.890;37.664;2024-03-07T10:03:43;99837.03;;;9.53;26.39
61900;BME280;47853;55.890;37.664;2024-03-07T10:06:10;99849.25;;;10.63;26.03
61900;BME280;47853;55.890;37.664;2024-03-07T10:08:36;99859.38;;;8.27;27.75
61900;BME280;47853;55.890;37.664;2024-03-07T10:11:01;99843.66;;;8.93;28.16
61900;BME280;47853;55.890;37.664;2024-03-07T10:13:27;99848.97;;;8.83;27.71
61900;BME280;47853;55.890;37.664;2024-03-07T10:15:52;99840.19;;;12.67;24.70
61900;BME280;47853;55.890;37.664;2024-03-07T10:18:17;99842.66;;;13.25;23.74
61900;BME280;47853;55.890;37.664;2024-03-07T10:20:43;99854.34;;;12.59;23.73
61900;BME280;47853;55.890;37.664;2024-03-07T10:23:08;99841.75;;;9.95;25.91
61900;BME280;47853;55.890;37.664;2024-03-07T10:25:34;99820.59;;;11.09;25.08
61900;BME280;47853;55.890;37.664;2024-03-07T10:27:59;99847.97;;;11.01;25.31
61900;BME280;47853;55.890;37.664;2024-03-07T10:30:25;99820.41;;;11.62;24.75
61900;BME280;47853;55.890;37.664;2024-03-07T10:32:58;99830.59;;;11.24;25.18
61900;BME280;47853;55.890;37.664;2024-03-07T10:35:23;99831.94;;;11.20;25.21
61900;BME280;47853;55.890;37.664;2024-03-07T10:37:50;99825.78;;;12.20;24.36
61900;BME280;47853;55.890;37.664;2024-03-07T10:40:15;99825.28;;;11.24;24.64
61900;BME280;47853;55.890;37.664;2024-03-07T10:42:48;99823.53;;;13.13;23.75
61900;BME280;47853;55.890;37.664;2024-03-07T10:45:16;99818.59;;;14.95;22.28
61900;BME280;47853;55.890;37.664;2024-03-07T10:47:43;99817.84;;;13.16;23.41
61900;BME280;47853;55.890;37.664;2024-03-07T10:52:59;99813.47;;;14.25;22.17
61900;BME280;47853;55.890;37.664;2024-03-07T10:58:37;99783.31;;;13.23;23.00
61900;BME280;47853;55.890;37.664;2024-03-07T11:01:07;99784.88;;;12.04;23.81
61900;BME280;47853;55.890;37.664;2024-03-07T11:03:35;99793.56;;;12.71;23.77
61900;BME280;47853;55.890;37.664;2024-03-07T11:06:01;99791.50;;;12.17;23.80
61900;BME280;47853;55.890;37.664;2024-03-07T11:08:27;99780.16;;;11.90;24.91
61900;BME280;47853;55.890;37.664;2024-03-07T11:10:52;99777.88;;;12.76;23.78
61900;BME280;47853;55.890;37.664;2024-03-07T11:13:18;99797.19;;;10.70;25.15
61900;BME280;47853;55.890;37.664;2024-03-07T11:15:46;99777.44;;;11.24;25.09
61900;BME280;47853;55.890;37.664;2024-03-07T11:18:13;99784.13;;;12.36;24.43
61900;BME280;47853;55.890;37.664;2024-03-07T11:20:40;99781.19;;;13.50;22.96
61900;BME280;47853;55.890;37.664;2024-03-07T11:23:25;99771.94;;;14.38;22.50
61900;BME280;47853;55.890;37.664;2024-03-07T11:25:53;99776.34;;;15.05;22.00
61900;BME280;47853;55.890;37.664;2024-03-07T11:28:19;99771.06;;;15.71;20.53
61900;BME280;47853;55.890;37.664;2024-03-07T11:30:44;99765.75;;;15.34;20.76
61900;BME280;47853;55.890;37.664;2024-03-07T11:33:11;99771.06;;;14.07;22.01
61900;BME280;47853;55.890;37.664;2024-03-07T11:35:36;99764.91;;;14.21;22.10
61900;BME280;47853;55.890;37.664;2024-03-07T11:38:02;99772.03;;;15.04;21.25
61900;BME280;47853;55.890;37.664;2024-03-07T11:43:00;99714.47;;;15.74;20.52
61900;BME280;47853;55.890;37.664;2024-03-07T11:45:26;99692.63;;;15.27;20.84
61900;BME280;47853;55.890;37.664;2024-03-07T11:47:53;99704.34;;;15.04;20.96
61900;BME280;47853;55.890;37.664;2024-03-07T11:50:19;99722.03;;;13.46;22.67
61900;BME280;47853;55.890;37.664;2024-03-07T11:52:45;99753.97;;;11.11;24.80
61900;BME280;47853;55.890;37.664;2024-03-07T11:55:10;99689.91;;;11.72;24.34
61900;BME280;47853;55.890;37.664;2024-03-07T11:57:36;99681.09;;;12.44;23.26
61900;BME280;47853;55.890;37.664;2024-03-07T12:00:03;99705.16;;;11.61;24.62
61900;BME280;47853;55.890;37.664;2024-03-07T12:02:28;99697.13;;;13.69;22.77
61900;BME280;47853;55.890;37.664;2024-03-07T12:04:54;99670.13;;;14.02;21.98
61900;BME280;47853;55.890;37.664;2024-03-07T12:07:19;99663.78;;;14.03;21.68
61900;BME280;47853;55.890;37.664;2024-03-07T12:09:45;99722.28;;;12.17;23.65
61900;BME280;47853;55.890;37.664;2024-03-07T12:12:14;99697.00;;;12.93;23.90
61900;BME280;47853;55.890;37.664;2024-03-07T12:14:39;99716.81;;;13.53;22.70
61900;BME280;47853;55.890;37.664;2024-03-07T12:17:05;99723.06;;;13.14;22.83
61900;BME280;47853;55.890;37.664;2024-03-07T12:19:33;99718.28;;;13.01;23.23
61900;BME280;47853;55.890;37.664;2024-03-07T12:22:02;99735.25;;;12.20;24.31
61900;BME280;47853;55.890;37.664;2024-03-07T12:24:30;99729.47;;;13.28;23.76
61900;BME280;47853;55.890;37.664;2024-03-07T12:27:06;99728.78;;;12.62;23.77
61900;BME280;47853;55.890;37.664;2024-03-07T12:29:32;99728.09;;;11.29;25.41
61900;BME280;47853;55.890;37.664;2024-03-07T12:31:57;99722.88;;;10.52;25.94
61900;BME280;47853;55.890;37.664;2024-03-07T12:34:23;99710.16;;;11.56;24.69
61900;BME280;47853;55.890;37.664;2024-03-07T12:36:48;99721.31;;;12.01;24.72
61900;BME280;47853;55.890;37.664;2024-03-07T12:39:23;99688.88;;;11.48;24.74
61900;BME280;47853;55.890;37.664;2024-03-07T12:41:50;99705.53;;;13.43;23.30
61900;BME280;47853;55.890;37.664;2024-03-07T12:44:15;99706.66;;;13.48;23.41
61900;BME280;47853;55.890;37.664;2024-03-07T12:46:41;99702.50;;;11.86;24.58
61900;BME280;47853;55.890;37.664;2024-03-07T12:49:06;99705.50;;;12.16;24.23